AEZ2350 LIEE-LIML
Flight info
| Callsign | AEZ2350 |
|---|---|
| Flight time | N/A |
| Altitude | 30000 |
| Route | KOVAS DCT DEXUL DCT GIGGI DCT UPDUT DCT CORSI DCT OKROK DCT AKUTI DCT TORTU DCT ERTEV DCT OLETI DCT ITCAP |
| Aircraft | A319/M-SDE3FGHIRWY/LB1 |
Departure
| Time | 2026-05-06 01:00 |
|---|---|
| Airport | Cagliari Elmas Airport (LIEE) |
Arrival
| Time | N/A |
|---|---|
| Airport | Milano Linate Airport (LIML) |
| Time | Latitude | Longitude | Altitude | Speed | Heading |
|---|---|---|---|---|---|
| 2026-05-06 00:35 | 39.25251 | 9.05866 | 20 ft | 0 kts | 51° |
| 2026-05-06 00:46 | 39.25250 | 9.05864 | 20 ft | 0 kts | 51° |
| 2026-05-06 00:46 | 39.25248 | 9.05861 | 20 ft | 0 kts | 112° |
| 2026-05-06 00:46 | 39.25253 | 9.05855 | 20 ft | 2 kts | 152° |
| 2026-05-06 00:47 | 39.25264 | 9.05842 | 20 ft | 2 kts | 131° |
| 2026-05-06 00:47 | 39.25275 | 9.05828 | 20 ft | 2 kts | 136° |
| 2026-05-06 00:47 | 39.25286 | 9.05815 | 20 ft | 2 kts | 135° |
| 2026-05-06 00:47 | 39.25296 | 9.05801 | 20 ft | 2 kts | 135° |
| 2026-05-06 00:48 | 39.25307 | 9.05787 | 20 ft | 2 kts | 135° |
| 2026-05-06 00:48 | 39.25317 | 9.05774 | 20 ft | 2 kts | 135° |
| 2026-05-06 00:48 | 39.25324 | 9.05765 | 20 ft | 0 kts | 135° |
| 2026-05-06 00:48 | 39.25326 | 9.05761 | 20 ft | 0 kts | 75° |
| 2026-05-06 00:49 | 39.25320 | 9.05753 | 20 ft | 2 kts | 33° |
| 2026-05-06 00:49 | 39.25308 | 9.05742 | 20 ft | 2 kts | 18° |
| 2026-05-06 00:49 | 39.25293 | 9.05739 | 20 ft | 2 kts | 356° |
| 2026-05-06 00:49 | 39.25278 | 9.05744 | 20 ft | 2 kts | 333° |
| 2026-05-06 00:50 | 39.25266 | 9.05755 | 20 ft | 2 kts | 314° |
| 2026-05-06 00:50 | 39.25254 | 9.05768 | 20 ft | 2 kts | 320° |
| 2026-05-06 00:50 | 39.25243 | 9.05781 | 20 ft | 2 kts | 319° |
| 2026-05-06 00:50 | 39.25232 | 9.05794 | 20 ft | 2 kts | 319° |
| 2026-05-06 00:51 | 39.25220 | 9.05806 | 20 ft | 2 kts | 319° |
| 2026-05-06 00:51 | 39.25209 | 9.05819 | 20 ft | 2 kts | 319° |
| 2026-05-06 00:51 | 39.25198 | 9.05831 | 20 ft | 2 kts | 319° |
| 2026-05-06 00:51 | 39.25187 | 9.05844 | 20 ft | 2 kts | 319° |
| 2026-05-06 00:52 | 39.25176 | 9.05856 | 20 ft | 1 kts | 319° |
| 2026-05-06 00:52 | 39.25174 | 9.05858 | 20 ft | 0 kts | 319° |
| 2026-05-06 00:54 | 39.25174 | 9.05857 | 20 ft | 0 kts | 319° |
| 2026-05-06 00:54 | 39.25191 | 9.05839 | 20 ft | 5 kts | 319° |
| 2026-05-06 00:54 | 39.25224 | 9.05802 | 20 ft | 7 kts | 319° |
| 2026-05-06 00:55 | 39.25272 | 9.05747 | 20 ft | 10 kts | 316° |
| 2026-05-06 00:55 | 39.25333 | 9.05672 | 20 ft | 13 kts | 316° |
| 2026-05-06 00:55 | 39.25389 | 9.05567 | 20 ft | 15 kts | 285° |
| 2026-05-06 00:55 | 39.25417 | 9.05423 | 20 ft | 17 kts | 294° |
| 2026-05-06 00:56 | 39.25495 | 9.05298 | 20 ft | 18 kts | 316° |
| 2026-05-06 00:56 | 39.25596 | 9.05179 | 20 ft | 20 kts | 317° |
| 2026-05-06 00:56 | 39.25704 | 9.05048 | 20 ft | 21 kts | 317° |
| 2026-05-06 00:56 | 39.25819 | 9.04923 | 20 ft | 21 kts | 320° |
| 2026-05-06 00:57 | 39.25930 | 9.04795 | 20 ft | 21 kts | 317° |
| 2026-05-06 00:57 | 39.26037 | 9.04667 | 20 ft | 19 kts | 317° |
| 2026-05-06 00:57 | 39.26115 | 9.04557 | 20 ft | 14 kts | 290° |
| 2026-05-06 00:57 | 39.26119 | 9.04426 | 20 ft | 15 kts | 243° |
| 2026-05-06 00:58 | 39.26035 | 9.04399 | 20 ft | 12 kts | 131° |
| 2026-05-06 00:58 | 39.26029 | 9.04407 | 20 ft | 0 kts | 134° |
| 2026-05-06 00:59 | 39.25959 | 9.04495 | 20 ft | 47 kts | 137° |
| 2026-05-06 00:59 | 39.25513 | 9.05004 | 20 ft | 119 kts | 137° |
| 2026-05-06 00:59 | 39.24778 | 9.05835 | 267 ft | 152 kts | 139° |
| 2026-05-06 01:00 | 39.23963 | 9.06747 | 877 ft | 156 kts | 139° |
| 2026-05-06 01:00 | 39.23099 | 9.07701 | 1341 ft | 177 kts | 139° |
| 2026-05-06 01:00 | 39.22078 | 9.08805 | 1708 ft | 206 kts | 139° |
| 2026-05-06 01:00 | 39.20975 | 9.10081 | 2019 ft | 222 kts | 137° |
| 2026-05-06 01:01 | 39.19778 | 9.11482 | 2474 ft | 239 kts | 144° |
| 2026-05-06 01:01 | 39.18280 | 9.12208 | 3497 ft | 232 kts | 181° |
| 2026-05-06 01:01 | 39.16786 | 9.11758 | 4504 ft | 224 kts | 212° |
| 2026-05-06 01:01 | 39.15653 | 9.10449 | 5450 ft | 223 kts | 230° |
| 2026-05-06 01:02 | 39.14649 | 9.08958 | 6393 ft | 223 kts | 231° |
| 2026-05-06 01:02 | 39.13925 | 9.07205 | 7297 ft | 225 kts | 256° |
| 2026-05-06 01:02 | 39.13900 | 9.05210 | 8154 ft | 231 kts | 280° |
| 2026-05-06 01:02 | 39.14591 | 9.03280 | 8743 ft | 252 kts | 306° |
| 2026-05-06 01:03 | 39.15916 | 9.01656 | 9267 ft | 272 kts | 314° |
| 2026-05-06 01:03 | 39.17355 | 9.00019 | 10005 ft | 280 kts | 314° |
| 2026-05-06 01:03 | 39.18799 | 8.98359 | 10856 ft | 283 kts | 314° |
| 2026-05-06 01:03 | 39.20268 | 8.96662 | 11670 ft | 287 kts | 314° |
| 2026-05-06 01:04 | 39.21764 | 8.94934 | 12451 ft | 291 kts | 316° |
| 2026-05-06 01:04 | 39.22137 | 8.94537 | 12627 ft | 293 kts | 320° |
| 2026-05-06 01:05 | 39.22741 | 8.94008 | 12882 ft | 297 kts | 327° |
| 2026-05-06 01:05 | 39.24917 | 8.92994 | 13665 ft | 309 kts | 347° |
| 2026-05-06 01:05 | 39.27221 | 8.92736 | 14117 ft | 327 kts | 353° |
| 2026-05-06 01:06 | 39.29603 | 8.92603 | 14446 ft | 345 kts | 354° |